Elk Point, Canada
Current Conditions -  °F | °C
As of 6:00 AM on Tuesday 21 Oct 2014 (Local Time) from CYOD Reporting Station
Broken Clouds Broken Clouds  
Wind Chill: 37°   Ceiling: 25000
Heat Index: 37°   Visibility: 15mi
Dew Point: 34°   Wind: 3mph
Humidity: 87%   Direction: 240°WSW
Pressure: 29.5"   Gusts: NA
Location:  53.9°N, 110.9°W
Report Text: CYOD 211200Z 24003KT 15SM BKN250 03/01 A2950 RMK CI3 SLP002
Loading
Personal Weather Stations






























Interactive Weather Map New forecast layout! Learn more

10-Day Weather Forecast

Advertisements
Track Severe Weather on mobile